Lister — ZDHW6 — position and weather

sailwx.info

Track history (hours):
 
Tides and Currents Weather Stations Pressure Air Temp Water Temp Dewpoint Dewpoint Depression Visibility Wind Speed Wind Dir Waves Ship Positions

Lister

Last reported at 2016-Jan-25 09:31 UTC. Time now 2016-Sep-28 17:11 UTC.
Position N 57°43' E 011°58'.
Warning: this ship's position is months out of date.

Date/timePositionNaut miles runAvg speedWind from/ knotsBaromVisibWave heightAir tempDewpointWater temp
2016-Jan-25 09:31N 57°43' E 011°58'0 0.0
2016-Jan-25 08:33N 57°43' E 011°58'3 3.4
2016-Jan-25 07:33N 57°41' E 011°53'8 7.6
2016-Jan-25 06:33N 57°37' E 011°41'7 6.6
2016-Jan-25 05:33N 57°31' E 011°40'7 7.3
2016-Jan-25 04:33N 57°24' E 011°44'7 7.3
2016-Jan-25 03:33N 57°17' E 011°49'7 7.3
2016-Jan-25 02:33N 57°10' E 011°53'68 7.4
2016-Jan-24 17:22N 56°06' E 012°35'6 7.8
2016-Jan-24 16:33N 56°01' E 012°41'8 8.2
2016-Jan-24 15:33N 55°53' E 012°44'8 8.4
2016-Jan-24 14:33N 55°44' E 012°42'9 8.7
2016-Jan-24 13:33N 55°36' E 012°42'9 9.2
2016-Jan-24 12:33N 55°26' E 012°42'9 8.8
2016-Jan-24 11:33N 55°18' E 012°45'9 9.2
2016-Jan-24 10:33N 55°16' E 013°01'9 9.0
2016-Jan-24 09:33N 55°15' E 013°17'9 9.0
2016-Jan-24 08:33N 55°15' E 013°33'9 8.6
2016-Jan-24 07:33N 55°14' E 013°48'8 8.3
2016-Jan-24 06:33N 55°14' E 014°02'8 8.2
2016-Jan-24 05:34N 55°14' E 014°17'9 8.7
2016-Jan-24 04:33N 55°21' E 014°26'9 9.2
2016-Jan-24 03:33N 55°29' E 014°32'10 9.5
2016-Jan-24 02:33N 55°39' E 014°37'10 9.6
2016-Jan-24 01:33N 55°48' E 014°42'  
2016-Jan-18 13:09N 59°37' E 023°13'610.1
2016-Jan-18 12:33N 59°38' E 023°24'1110.4
2016-Jan-18 11:31N 59°41' E 023°45'7011.4
2016-Jan-18 05:23N 59°57' E 026°00'911.3
2016-Jan-18 04:33N 59°59' E 026°19'1111.2
2016-Jan-18 03:33N 60°01' E 026°40'1211.3
2016-Jan-18 02:31N 59°60' E 027°04'2510.7
2016-Jan-18 00:09N 60°13' E 027°47'6 9.6
2016-Jan-17 23:31N 60°18' E 027°54'  
Track history (hours):
 
Tides and Currents Weather Stations Pressure Air Temp Water Temp Dewpoint Dewpoint Depression Visibility Wind Speed Wind Dir Waves Ship Positions

Lister

Last reported at 2016-Jan-25 09:31 UTC. Time now 2016-Sep-28 17:11 UTC.
Position N 57°43' E 011°58'.
Warning: this ship's position is months out of date.

Date/timePositionNaut miles runAvg speedWind from/ knotsBaromVisibWave heightAir tempDewpointWater temp
2016-Jan-25 09:31N 57°43' E 011°58'0 0.0
2016-Jan-25 08:33N 57°43' E 011°58'3 3.4
2016-Jan-25 07:33N 57°41' E 011°53'8 7.6
2016-Jan-25 06:33N 57°37' E 011°41'7 6.6
2016-Jan-25 05:33N 57°31' E 011°40'7 7.3
2016-Jan-25 04:33N 57°24' E 011°44'7 7.3
2016-Jan-25 03:33N 57°17' E 011°49'7 7.3
2016-Jan-25 02:33N 57°10' E 011°53'68 7.4
2016-Jan-24 17:22N 56°06' E 012°35'6 7.8
2016-Jan-24 16:33N 56°01' E 012°41'8 8.2
2016-Jan-24 15:33N 55°53' E 012°44'8 8.4
2016-Jan-24 14:33N 55°44' E 012°42'9 8.7
2016-Jan-24 13:33N 55°36' E 012°42'9 9.2
2016-Jan-24 12:33N 55°26' E 012°42'9 8.8
2016-Jan-24 11:33N 55°18' E 012°45'9 9.2
2016-Jan-24 10:33N 55°16' E 013°01'9 9.0
2016-Jan-24 09:33N 55°15' E 013°17'9 9.0
2016-Jan-24 08:33N 55°15' E 013°33'9 8.6
2016-Jan-24 07:33N 55°14' E 013°48'8 8.3
2016-Jan-24 06:33N 55°14' E 014°02'8 8.2
2016-Jan-24 05:34N 55°14' E 014°17'9 8.7
2016-Jan-24 04:33N 55°21' E 014°26'9 9.2
2016-Jan-24 03:33N 55°29' E 014°32'10 9.5
2016-Jan-24 02:33N 55°39' E 014°37'10 9.6
2016-Jan-24 01:33N 55°48' E 014°42'  
2016-Jan-18 13:09N 59°37' E 023°13'610.1
2016-Jan-18 12:33N 59°38' E 023°24'1110.4
2016-Jan-18 11:31N 59°41' E 023°45'7011.4
2016-Jan-18 05:23N 59°57' E 026°00'911.3
2016-Jan-18 04:33N 59°59' E 026°19'1111.2
2016-Jan-18 03:33N 60°01' E 026°40'1211.3
2016-Jan-18 02:31N 59°60' E 027°04'2510.7
2016-Jan-18 00:09N 60°13' E 027°47'6 9.6
2016-Jan-17 23:31N 60°18' E 027°54'  

Dump ship's entire track history